Time;durP1;ratioP1;P1;durP2;ratioP2;P2;SDS_P1;SDS_P2;PMS_P1;PMS_P2;Temp;Humidity;BMP_temperature;BMP_pressure;BME280_temperature;BME280_humidity;BME280_pressure;Samples;Min_cycle;Max_cycle;Signal;HPM_P1;HPM_P2
2024/04/05 08:11:20;;;;;;;7.35;3.52;;;;;;;10.75;57.18;100629.33;1801552;77;22184;-74
2024/04/05 08:13:51;;;;;;;6.97;3.20;;;;;;;10.87;57.29;100637.37;1778770;80;21568;-73
2024/04/05 08:16:21;;;;;;;5.15;3.15;;;;;;;11.11;56.51;100638.92;1731883;82;21189;-74
2024/04/05 08:18:50;;;;;;;6.33;3.25;;;;;;;11.32;55.63;100635.33;1747106;82;21166;-72
2024/04/05 08:21:21;;;;;;;5.67;3.10;;;;;;;11.53;54.84;100632.56;1691606;85;21680;-75
2024/04/05 08:23:50;;;;;;;6.87;3.20;;;;;;;11.81;54.48;100629.04;1695081;85;21619;-74
2024/04/05 08:26:19;;;;;;;6.90;3.25;;;;;;;12.12;53.76;100627.23;1693124;84;21159;-75
2024/04/05 08:28:48;;;;;;;7.22;3.00;;;;;;;12.42;52.42;100623.73;1724489;83;21170;-74
2024/04/05 08:31:18;;;;;;;8.55;3.00;;;;;;;12.66;51.60;100623.19;1732023;83;21150;-74
2024/04/05 08:33:48;;;;;;;8.43;2.80;;;;;;;12.97;50.79;100615.24;1701291;84;21175;-73
2024/04/05 08:36:17;;;;;;;8.60;3.02;;;;;;;13.30;49.90;100620.02;1732134;83;21177;-74
2024/04/05 08:38:47;;;;;;;7.90;3.12;;;;;;;13.58;49.32;100615.16;1701180;84;21171;-76
2024/04/05 08:41:18;;;;;;;6.05;2.75;;;;;;;13.77;48.40;100611.25;1732271;83;21177;-74
2024/04/05 08:43:47;;;;;;;8.25;2.72;;;;;;;13.93;48.12;100615.78;1710357;83;21103;-73
2024/04/05 08:46:16;;;;;;;4.85;2.87;;;;;;;14.18;47.17;100612.34;1723947;83;21177;-75
2024/04/05 08:48:45;;;;;;;5.42;2.65;;;;;;;14.42;46.16;100606.67;1753661;82;21587;-75
2024/04/05 08:51:13;;;;;;;6.83;3.27;;;;;;;14.56;45.56;100601.45;1753708;81;21136;-74
2024/04/05 08:53:44;;;;;;;10.78;3.35;;;;;;;14.74;45.42;100602.95;1753894;82;21136;-74
2024/04/05 08:56:12;;;;;;;5.65;2.75;;;;;;;14.90;44.80;100604.35;1754282;82;21199;-74
2024/04/05 08:58:42;;;;;;;5.92;2.33;;;;;;;14.85;44.34;100600.88;1756296;81;21102;-74
2024/04/05 09:01:10;;;;;;;9.43;2.83;;;;;;;14.79;44.23;100596.23;1759438;81;21122;-75
2024/04/05 09:03:40;;;;;;;4.20;2.80;;;;;;;14.78;44.35;100599.22;1759448;81;21142;-74
2024/04/05 09:06:09;;;;;;;4.45;2.62;;;;;;;14.76;43.64;100603.58;1759429;81;21683;-74
2024/04/05 09:08:49;;;;;;;4.58;2.90;;;;;;;14.63;43.95;100600.89;1759491;81;21106;-74
2024/04/05 09:11:20;;;;;;;5.62;2.52;;;;;;;14.57;43.96;100597.63;1747410;81;21561;-74
2024/04/05 09:13:59;;;;;;;6.12;2.80;;;;;;;14.46;43.83;100595.02;1780463;80;21138;-75
2024/04/05 09:16:28;;;;;;;5.35;2.52;;;;;;;14.40;44.21;100599.16;1780333;80;21218;-74
2024/04/05 09:19:11;;;;;;;8.35;2.90;;;;;;;14.39;44.06;100594.70;1754518;80;21612;-74
2024/04/05 09:21:44;;;;;;;5.20;2.77;;;;;;;14.36;43.87;100588.25;1749635;82;21130;-73
2024/04/05 09:24:15;;;;;;;9.35;2.52;;;;;;;14.33;44.35;100585.39;1749406;82;21119;-73
2024/04/05 09:26:46;;;;;;;5.12;2.40;;;;;;;14.33;44.28;100594.20;1749343;82;21212;-74
2024/04/05 09:29:14;;;;;;;4.12;2.20;;;;;;;14.26;44.28;100588.67;1749148;81;21542;-73
2024/04/05 09:31:47;;;;;;;4.58;2.42;;;;;;;14.22;44.28;100587.42;1671466;83;21170;-73
2024/04/05 09:34:19;;;;;;;4.90;2.60;;;;;;;14.12;44.05;100580.98;1709040;84;21112;-74
2024/04/05 09:36:48;;;;;;;5.05;2.37;;;;;;;14.00;44.33;100579.95;1749396;82;21154;-74
2024/04/05 09:39:18;;;;;;;7.08;2.70;;;;;;;13.93;44.74;100575.84;1749171;82;21134;-73
2024/04/05 09:41:47;;;;;;;6.42;2.37;;;;;;;13.94;44.94;100582.20;1749406;82;21177;-74
2024/04/05 09:44:20;;;;;;;3.83;2.45;;;;;;;13.95;44.53;100581.13;1716067;83;21178;-73
2024/04/05 09:46:57;;;;;;;9.05;2.87;;;;;;;13.90;44.51;100570.77;1708787;84;21616;-74
2024/04/05 09:49:24;;;;;;;7.15;2.80;;;;;;;13.87;44.94;100569.81;1749318;81;21126;-73
2024/04/05 09:51:54;;;;;;;4.85;2.62;;;;;;;13.94;45.04;100563.76;1749229;82;21682;-73
2024/04/05 09:54:24;;;;;;;4.70;2.55;;;;;;;14.00;44.92;100567.56;1749429;81;21099;-72
2024/04/05 09:56:54;;;;;;;6.12;2.35;;;;;;;14.01;44.59;100562.36;1749294;82;21141;-72
2024/04/05 09:59:30;;;;;;;5.60;2.90;;;;;;;14.05;44.72;100560.87;1715745;83;21147;-72
2024/04/05 10:01:59;;;;;;;5.80;2.20;;;;;;;14.05;44.55;100560.87;1715827;83;21118;-74
2024/04/05 10:04:28;;;;;;;4.65;2.30;;;;;;;14.01;44.51;100556.85;1685878;85;21151;-72
2024/04/05 10:07:07;;;;;;;7.15;2.37;;;;;;;13.95;44.45;100557.72;1715785;83;21612;-72
2024/04/05 10:09:39;;;;;;;4.60;2.30;;;;;;;13.88;44.81;100551.38;1707724;83;21202;-72
2024/04/05 10:12:26;;;;;;;7.47;2.42;;;;;;;13.88;44.77;100548.63;1682468;85;21175;-72
2024/04/05 10:14:59;;;;;;;4.62;2.10;;;;;;;13.92;44.85;100556.24;1647149;85;21659;-72
2024/04/05 10:17:32;;;;;;;6.20;2.10;;;;;;;13.94;44.62;100558.25;1668254;85;21334;-73
2024/04/05 10:20:07;;;;;;;10.00;3.00;;;;;;;13.96;44.43;100555.28;1679884;85;21262;-73
2024/04/05 10:22:36;;;;;;;5.25;2.17;;;;;;;14.00;44.53;100557.92;1709899;82;21177;-73
2024/04/05 10:25:07;;;;;;;3.15;1.77;;;;;;;14.03;44.22;100554.73;1679768;84;21159;-72
2024/04/05 10:27:35;;;;;;;4.12;2.17;;;;;;;14.08;43.84;100554.92;1709799;84;21139;-73
2024/04/05 10:30:10;;;;;;;3.87;1.75;;;;;;;14.15;43.91;100555.75;1684676;85;21159;-74
2024/04/05 10:32:37;;;;;;;3.02;1.77;;;;;;;14.23;43.90;100561.02;1684497;84;21174;-74
2024/04/05 10:35:07;;;;;;;10.65;2.00;;;;;;;14.28;43.39;100552.09;1692485;85;21289;-73
2024/04/05 10:37:41;;;;;;;9.28;2.40;;;;;;;14.34;43.30;100553.16;1692480;84;21187;-72
2024/04/05 10:40:13;;;;;;;4.75;1.82;;;;;;;14.34;43.30;100549.88;1673130;85;21104;-74
2024/04/05 10:42:43;;;;;;;6.62;2.00;;;;;;;14.33;43.42;100555.08;1673257;85;21227;-75
2024/04/05 10:45:20;;;;;;;3.70;1.70;;;;;;;14.37;43.65;100550.81;1692404;85;21185;-75
2024/04/05 10:47:53;;;;;;;5.62;2.00;;;;;;;14.38;43.25;100546.15;1692612;85;21127;-73
2024/04/05 10:50:22;;;;;;;7.03;2.20;;;;;;;14.37;43.28;100551.34;1692442;84;21218;-73
2024/04/05 10:52:55;;;;;;;3.52;2.17;;;;;;;14.36;43.00;100542.23;1692520;85;21175;-72
2024/04/05 10:55:25;;;;;;;3.65;1.90;;;;;;;14.43;42.92;100551.34;1673252;85;21143;-73
2024/04/05 10:57:56;;;;;;;6.70;1.90;;;;;;;14.44;42.61;100544.77;1692636;85;21159;-72
2024/04/05 11:00:25;;;;;;;6.83;1.90;;;;;;;14.48;42.48;100547.40;1692384;84;21107;-73
2024/04/05 11:02:54;;;;;;;4.55;1.60;;;;;;;14.52;42.67;100544.52;1692373;84;21119;-74
2024/04/05 11:05:24;;;;;;;3.58;1.98;;;;;;;14.56;42.53;100540.78;1692380;84;21160;-72
2024/04/05 11:08:00;;;;;;;2.92;1.62;;;;;;;14.59;42.28;100539.81;1692701;85;21135;-72
2024/04/05 11:10:34;;;;;;;11.03;2.40;;;;;;;14.60;42.33;100535.14;1692760;84;21666;-73
2024/04/05 11:13:17;;;;;;;5.00;1.90;;;;;;;14.58;42.52;100528.47;1692607;85;21494;-71
2024/04/05 11:15:46;;;;;;;3.08;1.90;;;;;;;14.66;42.63;100532.88;1692449;85;21147;-72
2024/04/05 11:18:16;;;;;;;5.12;1.80;;;;;;;14.72;42.22;100533.38;1692555;85;21129;-73
2024/04/05 11:20:50;;;;;;;3.95;1.70;;;;;;;14.75;42.18;100532.08;1692443;85;21184;-73
2024/04/05 11:23:21;;;;;;;4.30;2.00;;;;;;;14.76;42.22;100526.34;1692421;85;21230;-73
2024/04/05 11:25:55;;;;;;;3.52;1.90;;;;;;;14.76;41.85;100513.93;1692823;85;21160;-74
2024/04/05 11:28:24;;;;;;;5.85;1.80;;;;;;;14.79;41.81;100514.02;1692448;85;21173;-74
2024/04/05 11:30:54;;;;;;;3.67;2.00;;;;;;;14.82;41.30;100510.28;1692359;85;21178;-74
2024/04/05 11:33:23;;;;;;;4.97;2.08;;;;;;;14.88;41.36;100512.68;1692521;85;21216;-73
2024/04/05 11:35:53;;;;;;;3.62;1.87;;;;;;;14.91;40.95;100508.94;1692382;85;21184;-74
2024/04/05 11:38:22;;;;;;;4.60;1.80;;;;;;;14.97;40.61;100507.23;1692250;85;21212;-72
2024/04/05 11:40:51;;;;;;;3.20;1.98;;;;;;;14.99;40.86;100504.25;1692534;85;21160;-73
2024/04/05 11:43:21;;;;;;;7.00;1.77;;;;;;;15.01;40.95;100506.25;1692653;85;21228;-72
2024/04/05 11:45:50;;;;;;;6.75;1.87;;;;;;;15.03;40.63;100501.35;1692537;85;21165;-71
2024/04/05 11:48:19;;;;;;;3.15;1.67;;;;;;;15.07;40.85;100506.73;1692470;85;22107;-75
2024/04/05 11:50:48;;;;;;;6.95;2.08;;;;;;;15.11;40.76;100502.45;1692650;85;21199;-72
2024/04/05 11:53:16;;;;;;;3.77;1.90;;;;;;;15.14;40.30;100495.10;1663125;85;21196;-73
2024/04/05 11:55:45;;;;;;;2.35;1.62;;;;;;;15.15;40.21;100488.52;1692766;85;21133;-72
2024/04/05 11:58:14;;;;;;;4.60;1.80;;;;;;;15.14;40.12;100490.42;1692461;85;21176;-72
2024/04/05 12:00:48;;;;;;;7.85;1.57;;;;;;;15.17;40.23;100490.52;1692455;85;21160;-73
2024/04/05 12:03:18;;;;;;;7.45;1.92;;;;;;;15.19;40.19;100489.75;1692554;85;21220;-71
2024/04/05 12:05:46;;;;;;;5.03;1.85;;;;;;;15.19;39.89;100486.99;1692672;85;21140;-72
2024/04/05 12:08:15;;;;;;;6.78;1.75;;;;;;;15.23;40.04;100483.55;1692650;85;21129;-72
2024/04/05 12:10:44;;;;;;;3.33;2.02;;;;;;;15.23;39.83;100482.17;1697648;83;21580;-74
2024/04/05 12:13:13;;;;;;;3.12;1.92;;;;;;;15.22;40.11;100486.54;1716821;83;21188;-74
2024/04/05 12:15:43;;;;;;;3.47;2.00;;;;;;;15.22;40.13;100478.25;1716795;83;21192;-72
2024/04/05 12:18:11;;;;;;;7.05;2.12;;;;;;;15.27;40.10;100474.28;1700353;83;21587;-73
2024/04/05 12:20:48;;;;;;;5.92;1.87;;;;;;;15.32;40.25;100468.92;1686631;84;21205;-71
2024/04/05 12:23:18;;;;;;;2.70;1.65;;;;;;;15.41;40.37;100475.84;1686669;85;21299;-73
2024/04/05 12:25:57;;;;;;;4.67;1.70;;;;;;;15.51;40.22;100473.41;1686483;85;21581;-73
2024/04/05 12:28:28;;;;;;;2.50;1.32;;;;;;;15.65;39.47;100470.56;1742217;82;21651;-72
2024/04/05 12:30:56;;;;;;;6.30;2.27;;;;;;;15.70;39.15;100465.20;1706469;84;21124;-71
2024/04/05 12:33:25;;;;;;;6.12;2.20;;;;;;;15.72;39.33;100457.52;1742089;82;21149;-72
2024/04/05 12:36:08;;;;;;;7.15;2.02;;;;;;;15.74;39.10;100459.52;1742440;82;21095;-71
2024/04/05 12:38:39;;;;;;;5.37;1.80;;;;;;;15.75;39.34;100459.82;1741765;81;22167;-71
2024/04/05 12:41:09;;;;;;;7.35;2.37;;;;;;;15.77;39.17;100456.30;1741610;82;21150;-74
2024/04/05 12:43:38;;;;;;;4.08;1.90;;;;;;;15.82;40.54;100450.92;1742248;82;21123;-68
2024/04/05 12:46:08;;;;;;;6.35;1.98;;;;;;;15.88;40.52;100443.63;1742000;82;21142;-69
2024/04/05 12:48:47;;;;;;;3.60;1.62;;;;;;;15.93;39.97;100443.77;1750909;81;21096;-70
2024/04/05 12:51:17;;;;;;;5.55;2.60;;;;;;;15.99;39.15;100443.69;1752537;82;21151;-70
2024/04/05 12:53:45;;;;;;;3.02;1.70;;;;;;;16.03;38.77;100435.77;1676251;85;21160;-70
2024/04/05 12:56:14;;;;;;;3.42;1.60;;;;;;;16.06;38.38;100430.63;1752833;81;21151;-71
2024/04/05 12:58:47;;;;;;;5.17;2.17;;;;;;;16.11;38.55;100432.15;1752900;82;21144;-70
2024/04/05 13:01:16;;;;;;;3.98;2.00;;;;;;;16.15;38.53;100430.61;1676062;85;21140;-70
2024/04/05 13:03:45;;;;;;;6.10;2.27;;;;;;;16.14;38.30;100422.55;1753014;81;21575;-70
2024/04/05 13:06:17;;;;;;;4.70;1.92;;;;;;;16.13;38.06;100423.63;1676768;85;21108;-71
2024/04/05 13:08:46;;;;;;;4.42;2.17;;;;;;;16.15;38.29;100418.17;1752877;81;21088;-71
2024/04/05 13:11:15;;;;;;;3.35;2.05;;;;;;;16.11;38.37;100407.27;1752750;82;21555;-70
2024/04/05 13:13:44;;;;;;;5.55;2.83;;;;;;;16.09;38.20;100414.11;1676246;85;21136;-70
2024/04/05 13:16:15;;;;;;;4.92;2.17;;;;;;;16.10;38.45;100408.89;1752684;81;21207;-71
2024/04/05 13:18:44;;;;;;;4.65;1.82;;;;;;;16.11;38.67;100398.14;1676252;85;21228;-71
2024/04/05 13:21:15;;;;;;;3.70;2.00;;;;;;;16.11;38.39;100394.83;1752806;81;21567;-70
2024/04/05 13:23:45;;;;;;;5.75;2.10;;;;;;;16.14;38.33;100394.91;1745569;82;21633;-70
2024/04/05 13:26:19;;;;;;;3.70;2.10;;;;;;;16.17;38.51;100390.28;1745071;82;21136;-71
2024/04/05 13:28:53;;;;;;;8.00;2.10;;;;;;;16.21;38.25;100392.05;1745256;81;21143;-71
2024/04/05 13:31:23;;;;;;;6.28;1.95;;;;;;;16.30;38.52;100392.89;1745475;81;21136;-71
2024/04/05 13:33:53;;;;;;;3.65;1.67;;;;;;;16.37;38.25;100395.02;1745203;81;21132;-71
2024/04/05 13:36:22;;;;;;;5.78;1.82;;;;;;;16.42;38.31;100391.00;1745274;82;21206;-70
2024/04/05 13:38:52;;;;;;;4.87;1.92;;;;;;;16.42;38.19;100390.16;1745415;81;21124;-70
2024/04/05 13:41:20;;;;;;;8.40;2.30;;;;;;;16.41;38.16;100388.47;1745260;82;21143;-71
2024/04/05 13:43:49;;;;;;;4.05;1.92;;;;;;;16.41;38.12;100394.00;1745373;82;21116;-71
2024/04/05 13:46:19;;;;;;;3.60;1.90;;;;;;;16.41;38.29;100395.39;1745339;82;21139;-72
2024/04/05 13:48:54;;;;;;;5.47;2.00;;;;;;;16.40;38.44;100387.62;1741620;82;21135;-71
2024/04/05 13:51:26;;;;;;;3.15;1.75;;;;;;;16.42;38.21;100388.23;1739679;82;21129;-72
2024/04/05 13:53:56;;;;;;;3.70;1.82;;;;;;;16.46;38.27;100384.45;1739694;81;22246;-71
2024/04/05 13:56:25;;;;;;;3.77;2.00;;;;;;;16.47;38.19;100381.45;1739990;82;21221;-71
2024/04/05 13:58:55;;;;;;;6.60;2.20;;;;;;;16.47;37.96;100386.98;1739990;82;21139;-71
2024/04/05 14:01:23;;;;;;;7.12;2.10;;;;;;;16.47;38.31;100386.14;1739991;81;21571;-72
2024/04/05 14:03:52;;;;;;;4.17;1.77;;;;;;;16.48;38.22;100384.52;1739747;82;21617;-72
2024/04/05 14:06:21;;;;;;;4.97;2.10;;;;;;;16.47;38.39;100385.60;1729488;82;21147;-72
2024/04/05 14:08:51;;;;;;;3.77;1.70;;;;;;;16.45;38.33;100386.37;1739778;82;21156;-71
2024/04/05 14:11:20;;;;;;;4.65;1.67;;;;;;;16.42;38.34;100388.23;1739775;82;21159;-71
2024/04/05 14:13:49;;;;;;;7.28;5.45;;;;;;;16.43;38.65;100384.94;1739532;82;21112;-72
2024/04/05 14:16:18;;;;;;;8.00;2.67;;;;;;;16.40;38.72;100381.25;1739439;82;21369;-69
2024/04/05 14:18:52;;;;;;;5.30;1.90;;;;;;;16.39;38.78;100381.80;1716456;82;21162;-72
2024/04/05 14:21:19;;;;;;;6.37;1.95;;;;;;;16.39;38.69;100379.57;1710637;82;21574;-71
2024/04/05 14:23:47;;;;;;;6.75;2.27;;;;;;;16.38;38.85;100377.34;1710207;84;21160;-74
2024/04/05 14:26:17;;;;;;;6.47;2.42;;;;;;;16.36;39.12;100380.05;1710507;82;21130;-71
2024/04/05 14:28:47;;;;;;;5.17;2.20;;;;;;;16.35;39.35;100375.05;1710318;82;21165;-71
2024/04/05 14:31:21;;;;;;;4.42;2.10;;;;;;;16.36;39.20;100378.66;1710382;84;21166;-72
2024/04/05 14:33:48;;;;;;;5.80;2.33;;;;;;;16.38;39.14;100376.50;1709927;83;21145;-71
2024/04/05 14:36:18;;;;;;;4.97;2.02;;;;;;;16.39;38.94;100376.27;1709612;83;21157;-72
2024/04/05 14:38:47;;;;;;;4.70;2.30;;;;;;;16.41;38.96;100385.70;1710270;84;21130;-69
2024/04/05 14:41:16;;;;;;;4.90;2.15;;;;;;;16.41;39.15;100390.70;1710169;82;21153;-70
2024/04/05 14:43:45;;;;;;;7.72;2.20;;;;;;;16.37;39.06;100385.87;1710124;82;21169;-71
2024/04/05 14:46:14;;;;;;;3.98;1.82;;;;;;;16.35;39.03;100389.42;1710124;82;21173;-71
2024/04/05 14:48:43;;;;;;;8.38;2.40;;;;;;;16.33;39.03;100388.81;1718478;83;21189;-72
2024/04/05 14:51:22;;;;;;;5.60;2.15;;;;;;;16.28;39.24;100388.67;1727615;83;21137;-72
2024/04/05 14:54:02;;;;;;;4.70;2.17;;;;;;;16.24;39.32;100388.27;1727392;83;21157;-71
2024/04/05 14:56:31;;;;;;;9.38;2.77;;;;;;;16.19;39.54;100388.13;1727452;82;21639;-72
2024/04/05 14:59:00;;;;;;;5.05;2.37;;;;;;;16.16;39.59;100388.60;1727579;82;21109;-71
2024/04/05 15:01:29;;;;;;;4.55;2.25;;;;;;;16.14;40.00;100387.45;1727446;83;21173;-71
2024/04/05 15:03:58;;;;;;;4.12;2.33;;;;;;;16.11;39.94;100383.77;1727461;83;21246;-72
2024/04/05 15:06:27;;;;;;;7.12;2.80;;;;;;;16.09;39.87;100392.00;1727393;82;21161;-70
2024/04/05 15:08:57;;;;;;;6.97;2.80;;;;;;;16.06;39.89;100402.14;1746981;81;21092;-71
2024/04/05 15:11:26;;;;;;;7.62;2.58;;;;;;;16.04;40.18;100407.91;1656043;84;21143;-71
2024/04/05 15:13:57;;;;;;;10.23;4.90;;;;;;;16.01;40.67;100405.61;1757431;81;21649;-70
2024/04/05 15:16:26;;;;;;;4.80;3.40;;;;;;;15.99;43.11;100407.76;1745599;81;21566;-70
2024/04/05 15:18:54;;;;;;;6.03;2.87;;;;;;;15.95;45.50;100410.69;1746184;82;21511;-71
2024/04/05 15:21:23;;;;;;;5.53;2.62;;;;;;;15.89;46.56;100407.47;1750169;82;21095;-73
2024/04/05 15:23:52;;;;;;;5.42;2.90;;;;;;;15.85;48.04;100404.33;1750050;82;21155;-71
2024/04/05 15:26:21;;;;;;;8.85;3.05;;;;;;;15.80;48.72;100403.34;1728063;82;21141;-71
2024/04/05 15:28:51;;;;;;;5.50;3.27;;;;;;;15.77;49.40;100409.33;1727972;82;21165;-76
2024/04/05 15:31:20;;;;;;;5.50;3.30;;;;;;;15.74;50.32;100408.41;1727350;83;21133;-68
2024/04/05 15:36:58;;;;;;;6.22;3.30;;;;;;;15.68;51.01;100406.57;1747812;79;21206;-74
2024/04/05 15:39:27;;;;;;;5.40;3.17;;;;;;;15.64;51.45;100403.97;1710270;83;21129;-70
2024/04/05 15:41:56;;;;;;;8.23;2.80;;;;;;;15.62;51.95;100410.25;1779662;80;21647;-80
2024/04/05 15:44:25;;;;;;;12.37;2.72;;;;;;;15.58;52.96;100411.76;1744371;81;21170;-79
2024/04/05 15:46:54;;;;;;;8.98;2.40;;;;;;;15.58;53.97;100414.52;1715200;82;21164;-78
2024/04/05 15:49:23;;;;;;;7.45;3.30;;;;;;;15.59;54.30;100420.35;1745418;82;21142;-81
2024/04/05 15:51:51;;;;;;;10.78;3.50;;;;;;;15.58;54.24;100421.42;1713974;82;21805;-80
2024/04/05 15:54:20;;;;;;;10.78;5.03;;;;;;;15.55;53.96;100422.16;1740254;82;21138;-80
2024/04/05 15:56:49;;;;;;;10.48;5.37;;;;;;;15.51;53.83;100423.69;1713878;82;21639;-78
2024/04/05 15:59:17;;;;;;;7.50;3.95;;;;;;;15.46;53.81;100423.53;1744747;82;21651;-78
2024/04/05 16:01:46;;;;;;;7.78;4.00;;;;;;;15.40;53.92;100425.84;1690988;82;21119;-79
2024/04/05 16:04:15;;;;;;;10.65;4.28;;;;;;;15.36;54.06;100423.22;1714302;82;21561;-79
2024/04/05 16:06:44;;;;;;;8.78;3.42;;;;;;;15.34;54.26;100425.37;1744813;82;21585;-80
2024/04/05 16:09:14;;;;;;;13.10;4.67;;;;;;;15.32;54.43;100422.52;1745032;82;21135;-78
2024/04/05 16:11:42;;;;;;;9.98;5.55;;;;;;;15.30;54.62;100419.99;1714018;82;21131;-80
2024/04/05 16:14:11;;;;;;;13.55;5.75;;;;;;;15.26;54.76;100421.52;1745077;82;21146;-79
2024/04/05 16:16:41;;;;;;;10.60;4.47;;;;;;;15.25;55.08;100428.66;1744996;82;21119;-79
2024/04/05 16:19:11;;;;;;;12.95;7.37;;;;;;;15.23;55.31;100423.36;1744834;82;21155;-80
2024/04/05 16:21:39;;;;;;;11.95;6.50;;;;;;;15.21;55.61;100437.92;1744920;82;21557;-80
2024/04/05 16:24:08;;;;;;;9.70;4.90;;;;;;;15.17;55.86;100433.39;1744980;82;21573;-79
2024/04/05 16:26:37;;;;;;;9.58;3.90;;;;;;;15.16;56.07;100436.38;1681590;84;21676;-79
2024/04/05 16:29:06;;;;;;;10.70;4.80;;;;;;;15.12;56.23;100447.03;1745046;82;21577;-79
2024/04/05 16:31:35;;;;;;;14.55;7.67;;;;;;;15.10;56.34;100446.41;1714256;82;21562;-78
2024/04/05 16:34:05;;;;;;;10.30;5.97;;;;;;;15.09;56.54;100448.86;1744875;82;21608;-79
2024/04/05 16:36:34;;;;;;;10.63;5.42;;;;;;;15.05;56.76;100449.54;1758113;80;21138;-79
2024/04/05 16:39:04;;;;;;;10.28;4.75;;;;;;;15.03;56.98;100448.92;1781893;80;21540;-80
2024/04/05 16:41:32;;;;;;;10.45;5.40;;;;;;;15.01;57.28;100452.44;1781937;80;21086;-79
2024/04/05 16:44:03;;;;;;;9.43;5.90;;;;;;;14.98;57.47;100456.50;1781891;80;21576;-79
2024/04/05 16:46:32;;;;;;;9.63;5.65;;;;;;;14.97;57.68;100456.72;1782043;80;21102;-79
2024/04/05 16:49:01;;;;;;;8.35;5.22;;;;;;;14.97;57.89;100463.63;1760368;80;21634;-79
2024/04/05 16:51:30;;;;;;;10.03;4.45;;;;;;;14.95;58.11;100465.20;1781724;80;21090;-78
2024/04/05 16:53:59;;;;;;;10.45;4.00;;;;;;;14.94;58.36;100467.64;1781901;80;21544;-79
2024/04/05 16:56:28;;;;;;;9.10;4.42;;;;;;;14.92;58.51;100462.88;1781952;80;21100;-79
2024/04/05 16:58:57;;;;;;;9.65;4.60;;;;;;;14.90;58.63;100462.27;1781863;80;21593;-78
2024/04/05 17:01:26;;;;;;;9.23;4.85;;;;;;;14.88;58.84;100463.87;1782371;80;21133;-79
2024/04/05 17:03:57;;;;;;;13.35;6.15;;;;;;;14.86;59.10;100475.66;1782168;80;21588;-77
2024/04/05 17:06:26;;;;;;;13.75;6.22;;;;;;;14.84;59.31;100462.62;1782205;80;21166;-77
2024/04/05 17:08:55;;;;;;;14.33;7.20;;;;;;;14.82;59.55;100478.56;1782033;80;21559;-77
2024/04/05 17:11:24;;;;;;;15.48;6.97;;;;;;;14.80;59.70;100471.58;1782365;80;21118;-77
2024/04/05 17:13:55;;;;;;;12.55;7.08;;;;;;;14.79;59.90;100473.48;1782300;80;21075;-78
2024/04/05 17:16:23;;;;;;;14.18;7.12;;;;;;;14.79;60.08;100474.02;1782441;80;21110;-79
2024/04/05 17:18:52;;;;;;;12.10;6.85;;;;;;;14.75;60.30;100471.40;1760602;80;21122;-78
2024/04/05 17:21:20;;;;;;;11.38;5.37;;;;;;;14.74;60.41;100468.33;1760647;80;21534;-77
2024/04/05 17:23:49;;;;;;;11.43;5.17;;;;;;;14.72;60.53;100471.31;1781961;80;21130;-79
2024/04/05 17:26:19;;;;;;;15.05;6.10;;;;;;;14.70;60.74;100472.06;1782162;80;21141;-78
2024/04/05 17:28:49;;;;;;;10.90;6.10;;;;;;;14.68;60.93;100467.31;1782115;80;21098;-78
2024/04/05 17:31:19;;;;;;;13.72;6.83;;;;;;;14.65;61.09;100473.80;1782301;80;21142;-79
2024/04/05 17:33:48;;;;;;;16.87;7.55;;;;;;;14.61;61.32;100473.41;1782183;80;21530;-75
2024/04/05 17:36:17;;;;;;;17.77;7.72;;;;;;;14.59;61.55;100470.03;1779517;80;21595;-79
2024/04/05 17:38:49;;;;;;;16.35;7.67;;;;;;;14.56;61.76;100475.45;1755973;82;21620;-79
2024/04/05 17:41:18;;;;;;;16.45;7.75;;;;;;;14.57;61.86;100472.16;1755974;82;21169;-79
2024/04/05 17:43:47;;;;;;;20.77;8.78;;;;;;;14.54;62.02;100475.36;1755985;82;21592;-79
2024/04/05 17:46:17;;;;;;;12.00;6.97;;;;;;;14.53;62.17;100480.56;1755821;82;21173;-78
2024/04/05 17:48:46;;;;;;;12.33;6.72;;;;;;;14.50;62.32;100483.77;1755869;82;21580;-78
2024/04/05 17:51:15;;;;;;;11.60;7.03;;;;;;;14.48;62.58;100479.00;1723484;82;21580;-77
2024/04/05 17:53:44;;;;;;;15.35;7.03;;;;;;;14.47;62.85;100482.83;1755938;80;21140;-77
2024/04/05 17:56:13;;;;;;;15.80;6.55;;;;;;;14.45;63.04;100482.20;1756116;82;21731;-78
2024/04/05 17:58:46;;;;;;;14.23;6.40;;;;;;;14.44;63.27;100483.27;1755988;82;21189;-77
2024/04/05 18:01:12;;;;;;;13.72;6.00;;;;;;;14.43;63.53;100483.81;1756189;80;21577;-78
2024/04/05 18:03:42;;;;;;;13.93;5.65;;;;;;;14.43;63.75;100487.94;1755799;82;21640;-77
2024/04/05 18:06:11;;;;;;;11.30;5.35;;;;;;;14.42;63.88;100478.48;1756167;82;21133;-77
2024/04/05 18:08:43;;;;;;;14.93;6.28;;;;;;;14.43;63.89;100487.09;1755855;82;21165;-78
2024/04/05 18:11:12;;;;;;;11.48;6.03;;;;;;;14.41;63.84;100483.15;1755796;82;21587;-78
2024/04/05 18:13:43;;;;;;;12.20;5.22;;;;;;;14.40;63.93;100485.59;1755747;82;21157;-78
2024/04/05 18:16:11;;;;;;;13.22;6.05;;;;;;;14.39;64.06;100489.41;1756003;82;21153;-78
2024/04/05 18:18:40;;;;;;;11.28;5.53;;;;;;;14.36;64.23;100485.72;1724545;82;21113;-77
2024/04/05 18:21:09;;;;;;;14.23;5.97;;;;;;;14.34;64.42;100485.63;1756075;82;21678;-77
2024/04/05 18:23:37;;;;;;;14.15;5.90;;;;;;;14.32;64.62;100487.77;1755729;82;21136;-78
2024/04/05 18:26:06;;;;;;;12.23;5.45;;;;;;;14.29;64.69;100485.73;1755721;82;21637;-77
2024/04/05 18:28:35;;;;;;;11.63;5.75;;;;;;;14.29;64.77;100489.02;1755787;82;21138;-77
2024/04/05 18:31:04;;;;;;;26.70;13.18;;;;;;;14.26;64.82;100484.78;1755870;82;21146;-79
2024/04/05 18:33:33;;;;;;;18.42;7.75;;;;;;;14.23;64.91;100481.63;1755508;82;21610;-77
2024/04/05 18:36:05;;;;;;;13.70;6.17;;;;;;;14.19;65.18;100482.59;1755878;82;21169;-78
2024/04/05 18:38:36;;;;;;;14.47;6.58;;;;;;;14.16;65.53;100474.77;1769983;79;21150;-78
2024/04/05 18:41:05;;;;;;;16.45;6.40;;;;;;;14.12;65.72;100480.94;1773645;81;21118;-78
2024/04/05 18:43:33;;;;;;;13.90;6.40;;;;;;;14.09;66.04;100480.84;1724771;81;21130;-78
2024/04/05 18:46:03;;;;;;;14.45;6.30;;;;;;;14.08;66.22;100485.20;1773728;81;21580;-78
2024/04/05 18:48:32;;;;;;;13.78;6.12;;;;;;;14.05;66.43;100483.72;1774060;81;21107;-77
2024/04/05 18:51:01;;;;;;;15.28;6.33;;;;;;;14.02;66.55;100475.89;1773657;81;21538;-78
2024/04/05 18:53:30;;;;;;;15.72;5.87;;;;;;;13.99;66.66;100473.58;1774271;81;21079;-78
2024/04/05 18:55:58;;;;;;;12.10;6.17;;;;;;;13.96;66.82;100472.64;1773730;81;21150;-75
2024/04/05 18:58:33;;;;;;;11.90;6.10;;;;;;;13.92;66.91;100474.14;1773810;81;21611;-78
2024/04/05 19:01:00;;;;;;;13.50;6.00;;;;;;;13.88;67.07;100475.10;1773871;81;21110;-78
2024/04/05 19:03:34;;;;;;;13.15;6.10;;;;;;;13.84;67.17;100478.51;1773882;81;21177;-78
2024/04/05 19:06:00;;;;;;;9.93;5.40;;;;;;;13.80;67.39;100468.99;1773951;81;21091;-75
2024/04/05 19:08:32;;;;;;;9.08;5.37;;;;;;;13.75;67.64;100468.27;1750103;81;21623;-78
2024/04/05 19:11:03;;;;;;;11.73;6.10;;;;;;;13.71;67.91;100467.53;1773655;81;21107;-77
2024/04/05 19:13:38;;;;;;;13.20;5.97;;;;;;;13.64;68.17;100468.91;1749083;81;21078;-77
2024/04/05 19:16:09;;;;;;;11.05;6.22;;;;;;;13.57;68.47;100470.83;1749951;81;21537;-77
2024/04/05 19:18:38;;;;;;;13.40;6.12;;;;;;;13.46;68.73;100461.33;1773899;81;21534;-77
2024/04/05 19:21:07;;;;;;;15.85;6.17;;;;;;;13.37;69.07;100470.02;1773768;81;21745;-79
2024/04/05 19:23:36;;;;;;;14.65;6.47;;;;;;;13.26;69.37;100463.27;1773653;80;21607;-79
2024/04/05 19:26:04;;;;;;;13.20;6.40;;;;;;;13.22;69.66;100462.00;1773706;81;21581;-77
2024/04/05 19:28:33;;;;;;;17.05;6.17;;;;;;;13.19;69.83;100467.41;1773621;81;21130;-76
2024/04/05 19:31:02;;;;;;;13.25;6.80;;;;;;;13.17;70.02;100465.92;1773619;81;21525;-77
2024/04/05 19:33:32;;;;;;;14.25;6.40;;;;;;;13.14;70.20;100465.78;1773927;81;21867;-77
2024/04/05 19:36:04;;;;;;;15.13;6.50;;;;;;;13.12;70.38;100467.06;1696603;81;21146;-77
2024/04/05 19:38:35;;;;;;;16.60;7.80;;;;;;;13.07;70.59;100463.57;1762204;80;21157;-76
2024/04/05 19:41:04;;;;;;;15.98;8.20;;;;;;;13.04;70.80;100464.00;1755874;82;21141;-78
2024/04/05 19:43:33;;;;;;;17.10;7.42;;;;;;;12.97;71.04;100470.84;1755863;82;21133;-78
2024/04/05 19:46:05;;;;;;;22.37;7.65;;;;;;;12.91;71.26;100470.31;1755814;82;21761;-77
2024/04/05 19:48:34;;;;;;;17.82;7.72;;;;;;;12.85;71.52;100473.91;1755806;82;21171;-77